< < Back
Terminal Aerodrome Forecast


Current Version              Previous Versions:   1  2  3  4  5  6  7  8  9  

Terminal Aerodrome Forecast

054
FTUS42 KTAE 230500
TAFVLD
TAF
KVLD 230521Z 2306/2406 00000KT P6SM FEW007
     FM230800 00000KT 4SM BR SCT002
      TEMPO 2309/2313 1/2SM FG BKN002
     FM231400 32005KT P6SM SCT040=



Latest METAR

043
SAUS70 KWBC 230800 RRJ
MTRVLD
METAR KVLD 230753Z AUTO 00000KT 4SM HZ CLR 16/13 A2986 RMK AO2 SLP118
T01610133


USA.gov is the U.S. government's official web portal to all federal, state and local government web resources and services.